sensor_id;sensor_type;location;lat;lon;timestamp;P1;durP1;ratioP1;P2;durP2;ratioP2
33902;SDS011;20194;50.950;5.346;2023-08-30T00:00:18;13.38;;;8.98;;
33902;SDS011;20194;50.950;5.346;2023-08-30T00:02:46;16.77;;;9.80;;
33902;SDS011;20194;50.950;5.346;2023-08-30T00:05:12;14.73;;;9.48;;
33902;SDS011;20194;50.950;5.346;2023-08-30T00:07:38;16.98;;;10.38;;
33902;SDS011;20194;50.950;5.346;2023-08-30T00:10:05;19.58;;;11.00;;
33902;SDS011;20194;50.950;5.346;2023-08-30T00:12:35;16.33;;;9.00;;
33902;SDS011;20194;50.950;5.346;2023-08-30T00:15:01;15.65;;;9.93;;
33902;SDS011;20194;50.950;5.346;2023-08-30T00:17:27;14.85;;;10.18;;
33902;SDS011;20194;50.950;5.346;2023-08-30T00:19:53;16.48;;;9.77;;
33902;SDS011;20194;50.950;5.346;2023-08-30T00:22:21;14.55;;;9.70;;
33902;SDS011;20194;50.950;5.346;2023-08-30T00:24:47;15.65;;;10.05;;
33902;SDS011;20194;50.950;5.346;2023-08-30T00:27:13;15.38;;;10.50;;
33902;SDS011;20194;50.950;5.346;2023-08-30T00:29:38;14.18;;;9.55;;
33902;SDS011;20194;50.950;5.346;2023-08-30T00:32:04;16.05;;;10.57;;
33902;SDS011;20194;50.950;5.346;2023-08-30T00:34:30;16.77;;;10.70;;
33902;SDS011;20194;50.950;5.346;2023-08-30T00:36:55;16.98;;;10.95;;
33902;SDS011;20194;50.950;5.346;2023-08-30T00:39:21;15.18;;;9.95;;
33902;SDS011;20194;50.950;5.346;2023-08-30T00:41:47;16.60;;;10.77;;
33902;SDS011;20194;50.950;5.346;2023-08-30T00:44:13;16.42;;;10.25;;
33902;SDS011;20194;50.950;5.346;2023-08-30T00:46:39;16.27;;;10.65;;
33902;SDS011;20194;50.950;5.346;2023-08-30T00:49:05;18.20;;;10.43;;
33902;SDS011;20194;50.950;5.346;2023-08-30T00:51:31;17.73;;;10.75;;
33902;SDS011;20194;50.950;5.346;2023-08-30T00:54:00;17.98;;;11.25;;
33902;SDS011;20194;50.950;5.346;2023-08-30T00:56:27;16.80;;;10.63;;
33902;SDS011;20194;50.950;5.346;2023-08-30T00:58:53;20.60;;;11.55;;
33902;SDS011;20194;50.950;5.346;2023-08-30T01:01:20;16.10;;;10.60;;
33902;SDS011;20194;50.950;5.346;2023-08-30T01:03:46;19.15;;;12.38;;
33902;SDS011;20194;50.950;5.346;2023-08-30T01:06:11;17.35;;;11.27;;
33902;SDS011;20194;50.950;5.346;2023-08-30T01:08:38;17.90;;;12.45;;
33902;SDS011;20194;50.950;5.346;2023-08-30T01:14:03;16.83;;;11.57;;
33902;SDS011;20194;50.950;5.346;2023-08-30T01:16:32;18.98;;;11.35;;
33902;SDS011;20194;50.950;5.346;2023-08-30T01:18:59;18.05;;;11.32;;
33902;SDS011;20194;50.950;5.346;2023-08-30T01:21:48;18.35;;;11.55;;
33902;SDS011;20194;50.950;5.346;2023-08-30T01:24:23;17.98;;;11.70;;
33902;SDS011;20194;50.950;5.346;2023-08-30T01:27:08;15.00;;;11.00;;
33902;SDS011;20194;50.950;5.346;2023-08-30T01:29:35;15.18;;;10.52;;
33902;SDS011;20194;50.950;5.346;2023-08-30T01:32:07;17.88;;;11.95;;
33902;SDS011;20194;50.950;5.346;2023-08-30T01:34:33;18.45;;;11.25;;
33902;SDS011;20194;50.950;5.346;2023-08-30T01:37:00;16.63;;;11.50;;
33902;SDS011;20194;50.950;5.346;2023-08-30T01:39:28;16.75;;;11.15;;
33902;SDS011;20194;50.950;5.346;2023-08-30T01:41:55;18.17;;;10.60;;
33902;SDS011;20194;50.950;5.346;2023-08-30T01:44:25;20.30;;;12.00;;
33902;SDS011;20194;50.950;5.346;2023-08-30T01:46:53;17.85;;;11.25;;
33902;SDS011;20194;50.950;5.346;2023-08-30T01:49:20;16.17;;;11.20;;
33902;SDS011;20194;50.950;5.346;2023-08-30T01:51:46;18.45;;;11.18;;
33902;SDS011;20194;50.950;5.346;2023-08-30T01:54:14;14.25;;;10.82;;
33902;SDS011;20194;50.950;5.346;2023-08-30T01:56:43;16.52;;;10.68;;
33902;SDS011;20194;50.950;5.346;2023-08-30T01:59:12;16.58;;;11.65;;
33902;SDS011;20194;50.950;5.346;2023-08-30T02:01:39;15.35;;;11.13;;
33902;SDS011;20194;50.950;5.346;2023-08-30T02:04:04;16.98;;;11.52;;
33902;SDS011;20194;50.950;5.346;2023-08-30T02:09:03;25.48;;;11.88;;
33902;SDS011;20194;50.950;5.346;2023-08-30T02:11:35;17.30;;;11.48;;
33902;SDS011;20194;50.950;5.346;2023-08-30T02:14:02;17.30;;;11.98;;
33902;SDS011;20194;50.950;5.346;2023-08-30T02:16:34;19.08;;;11.95;;
33902;SDS011;20194;50.950;5.346;2023-08-30T02:19:01;16.58;;;11.98;;
33902;SDS011;20194;50.950;5.346;2023-08-30T02:21:27;16.33;;;10.95;;
33902;SDS011;20194;50.950;5.346;2023-08-30T02:23:53;20.25;;;11.70;;
33902;SDS011;20194;50.950;5.346;2023-08-30T02:26:19;18.13;;;11.10;;
33902;SDS011;20194;50.950;5.346;2023-08-30T02:28:45;19.77;;;10.98;;
33902;SDS011;20194;50.950;5.346;2023-08-30T02:31:11;16.63;;;11.93;;
33902;SDS011;20194;50.950;5.346;2023-08-30T02:33:36;17.05;;;11.85;;
33902;SDS011;20194;50.950;5.346;2023-08-30T02:36:02;19.60;;;11.60;;
33902;SDS011;20194;50.950;5.346;2023-08-30T02:38:28;23.30;;;11.38;;
33902;SDS011;20194;50.950;5.346;2023-08-30T02:40:54;14.60;;;11.30;;
33902;SDS011;20194;50.950;5.346;2023-08-30T02:43:20;15.70;;;11.70;;
33902;SDS011;20194;50.950;5.346;2023-08-30T02:45:45;20.80;;;11.30;;
33902;SDS011;20194;50.950;5.346;2023-08-30T02:48:12;17.67;;;12.13;;
33902;SDS011;20194;50.950;5.346;2023-08-30T02:50:39;16.42;;;11.88;;
33902;SDS011;20194;50.950;5.346;2023-08-30T02:53:04;20.17;;;12.20;;
33902;SDS011;20194;50.950;5.346;2023-08-30T02:55:33;19.55;;;12.20;;
33902;SDS011;20194;50.950;5.346;2023-08-30T02:57:59;16.52;;;11.68;;
33902;SDS011;20194;50.950;5.346;2023-08-30T03:00:25;23.45;;;11.38;;
33902;SDS011;20194;50.950;5.346;2023-08-30T03:02:51;16.90;;;11.48;;
33902;SDS011;20194;50.950;5.346;2023-08-30T03:05:17;25.33;;;12.40;;
33902;SDS011;20194;50.950;5.346;2023-08-30T03:07:43;19.15;;;12.02;;
33902;SDS011;20194;50.950;5.346;2023-08-30T03:10:09;18.65;;;11.60;;
33902;SDS011;20194;50.950;5.346;2023-08-30T03:12:36;19.23;;;12.13;;
33902;SDS011;20194;50.950;5.346;2023-08-30T03:15:02;23.17;;;13.43;;
33902;SDS011;20194;50.950;5.346;2023-08-30T03:17:29;23.45;;;13.55;;
33902;SDS011;20194;50.950;5.346;2023-08-30T03:19:55;20.23;;;13.18;;
33902;SDS011;20194;50.950;5.346;2023-08-30T03:22:22;22.38;;;13.57;;
33902;SDS011;20194;50.950;5.346;2023-08-30T03:24:47;21.45;;;13.35;;
33902;SDS011;20194;50.950;5.346;2023-08-30T03:27:14;18.30;;;13.43;;
33902;SDS011;20194;50.950;5.346;2023-08-30T03:29:41;18.85;;;13.05;;
33902;SDS011;20194;50.950;5.346;2023-08-30T03:32:07;20.13;;;13.82;;
33902;SDS011;20194;50.950;5.346;2023-08-30T03:34:33;23.77;;;14.88;;
33902;SDS011;20194;50.950;5.346;2023-08-30T03:36:58;19.90;;;12.93;;
33902;SDS011;20194;50.950;5.346;2023-08-30T03:39:24;21.48;;;14.35;;
33902;SDS011;20194;50.950;5.346;2023-08-30T03:41:50;25.45;;;14.52;;
33902;SDS011;20194;50.950;5.346;2023-08-30T03:44:16;25.30;;;13.98;;
33902;SDS011;20194;50.950;5.346;2023-08-30T03:46:41;23.55;;;13.90;;
33902;SDS011;20194;50.950;5.346;2023-08-30T03:49:07;22.27;;;14.15;;
33902;SDS011;20194;50.950;5.346;2023-08-30T03:51:33;22.83;;;14.43;;
33902;SDS011;20194;50.950;5.346;2023-08-30T03:53:59;22.17;;;15.15;;
33902;SDS011;20194;50.950;5.346;2023-08-30T03:56:25;19.45;;;14.40;;
33902;SDS011;20194;50.950;5.346;2023-08-30T03:58:51;23.63;;;14.93;;
33902;SDS011;20194;50.950;5.346;2023-08-30T04:01:16;28.75;;;15.00;;
33902;SDS011;20194;50.950;5.346;2023-08-30T04:03:43;22.55;;;15.27;;
33902;SDS011;20194;50.950;5.346;2023-08-30T04:06:09;26.98;;;16.48;;
33902;SDS011;20194;50.950;5.346;2023-08-30T04:08:35;26.55;;;15.88;;
33902;SDS011;20194;50.950;5.346;2023-08-30T04:11:01;26.08;;;16.30;;
33902;SDS011;20194;50.950;5.346;2023-08-30T04:13:27;23.90;;;16.10;;
33902;SDS011;20194;50.950;5.346;2023-08-30T04:15:52;27.98;;;16.10;;
33902;SDS011;20194;50.950;5.346;2023-08-30T04:18:18;27.90;;;17.08;;
33902;SDS011;20194;50.950;5.346;2023-08-30T04:20:44;24.73;;;16.10;;
33902;SDS011;20194;50.950;5.346;2023-08-30T04:23:10;24.65;;;16.33;;
33902;SDS011;20194;50.950;5.346;2023-08-30T04:25:36;29.23;;;16.23;;
33902;SDS011;20194;50.950;5.346;2023-08-30T04:28:02;28.50;;;16.48;;
33902;SDS011;20194;50.950;5.346;2023-08-30T04:30:28;25.83;;;15.30;;
33902;SDS011;20194;50.950;5.346;2023-08-30T04:32:54;27.02;;;15.48;;
33902;SDS011;20194;50.950;5.346;2023-08-30T04:35:19;24.85;;;16.90;;
33902;SDS011;20194;50.950;5.346;2023-08-30T04:37:45;27.85;;;14.50;;
33902;SDS011;20194;50.950;5.346;2023-08-30T04:40:11;26.08;;;15.30;;
33902;SDS011;20194;50.950;5.346;2023-08-30T04:42:37;25.33;;;15.40;;
33902;SDS011;20194;50.950;5.346;2023-08-30T04:45:06;22.67;;;16.05;;
33902;SDS011;20194;50.950;5.346;2023-08-30T04:47:33;24.48;;;16.10;;
33902;SDS011;20194;50.950;5.346;2023-08-30T04:49:59;30.30;;;15.73;;
33902;SDS011;20194;50.950;5.346;2023-08-30T04:52:24;22.92;;;14.65;;
33902;SDS011;20194;50.950;5.346;2023-08-30T04:54:50;26.23;;;15.30;;
33902;SDS011;20194;50.950;5.346;2023-08-30T04:57:16;25.17;;;15.05;;
33902;SDS011;20194;50.950;5.346;2023-08-30T04:59:42;23.17;;;15.63;;
33902;SDS011;20194;50.950;5.346;2023-08-30T05:02:09;25.17;;;15.38;;
33902;SDS011;20194;50.950;5.346;2023-08-30T05:04:35;21.20;;;14.43;;
33902;SDS011;20194;50.950;5.346;2023-08-30T05:07:00;22.75;;;14.98;;
33902;SDS011;20194;50.950;5.346;2023-08-30T05:09:26;23.23;;;14.73;;
33902;SDS011;20194;50.950;5.346;2023-08-30T05:11:52;24.77;;;14.63;;
33902;SDS011;20194;50.950;5.346;2023-08-30T05:14:19;26.80;;;15.93;;
33902;SDS011;20194;50.950;5.346;2023-08-30T05:16:45;27.33;;;15.07;;
33902;SDS011;20194;50.950;5.346;2023-08-30T05:19:11;25.33;;;15.93;;
33902;SDS011;20194;50.950;5.346;2023-08-30T05:21:37;22.70;;;16.15;;
33902;SDS011;20194;50.950;5.346;2023-08-30T05:24:03;23.17;;;14.30;;
33902;SDS011;20194;50.950;5.346;2023-08-30T05:26:32;25.23;;;14.45;;
33902;SDS011;20194;50.950;5.346;2023-08-30T05:28:58;24.73;;;15.07;;
33902;SDS011;20194;50.950;5.346;2023-08-30T05:31:24;20.80;;;14.35;;
33902;SDS011;20194;50.950;5.346;2023-08-30T05:33:49;26.58;;;13.77;;
33902;SDS011;20194;50.950;5.346;2023-08-30T05:36:15;17.88;;;13.15;;
33902;SDS011;20194;50.950;5.346;2023-08-30T05:38:41;16.38;;;11.95;;
33902;SDS011;20194;50.950;5.346;2023-08-30T05:41:07;21.02;;;12.27;;
33902;SDS011;20194;50.950;5.346;2023-08-30T05:43:33;20.50;;;11.68;;
33902;SDS011;20194;50.950;5.346;2023-08-30T05:45:58;16.13;;;10.63;;
33902;SDS011;20194;50.950;5.346;2023-08-30T05:48:27;17.75;;;10.77;;
33902;SDS011;20194;50.950;5.346;2023-08-30T05:50:53;16.60;;;9.38;;
33902;SDS011;20194;50.950;5.346;2023-08-30T05:53:19;18.08;;;10.23;;
33902;SDS011;20194;50.950;5.346;2023-08-30T05:55:45;17.80;;;10.68;;
33902;SDS011;20194;50.950;5.346;2023-08-30T05:58:10;18.15;;;9.80;;
33902;SDS011;20194;50.950;5.346;2023-08-30T06:00:38;16.45;;;8.73;;
33902;SDS011;20194;50.950;5.346;2023-08-30T06:03:04;12.95;;;9.40;;
33902;SDS011;20194;50.950;5.346;2023-08-30T06:05:30;12.35;;;8.60;;
33902;SDS011;20194;50.950;5.346;2023-08-30T06:07:55;13.38;;;8.82;;
33902;SDS011;20194;50.950;5.346;2023-08-30T06:10:22;13.20;;;8.10;;
33902;SDS011;20194;50.950;5.346;2023-08-30T06:12:48;14.43;;;9.48;;
33902;SDS011;20194;50.950;5.346;2023-08-30T06:15:14;13.27;;;7.65;;
33902;SDS011;20194;50.950;5.346;2023-08-30T06:17:40;16.88;;;8.02;;
33902;SDS011;20194;50.950;5.346;2023-08-30T06:20:05;25.30;;;9.05;;
33902;SDS011;20194;50.950;5.346;2023-08-30T06:22:31;17.15;;;8.57;;
33902;SDS011;20194;50.950;5.346;2023-08-30T06:24:57;18.13;;;8.30;;
33902;SDS011;20194;50.950;5.346;2023-08-30T06:27:23;18.95;;;8.32;;
33902;SDS011;20194;50.950;5.346;2023-08-30T06:29:49;11.05;;;6.55;;
33902;SDS011;20194;50.950;5.346;2023-08-30T06:32:15;15.55;;;6.57;;
33902;SDS011;20194;50.950;5.346;2023-08-30T06:34:42;13.75;;;7.07;;
33902;SDS011;20194;50.950;5.346;2023-08-30T06:37:08;14.85;;;6.78;;
33902;SDS011;20194;50.950;5.346;2023-08-30T06:39:34;13.95;;;6.55;;
33902;SDS011;20194;50.950;5.346;2023-08-30T06:42:01;20.38;;;7.03;;
33902;SDS011;20194;50.950;5.346;2023-08-30T06:44:27;12.38;;;6.07;;
33902;SDS011;20194;50.950;5.346;2023-08-30T06:46:54;13.07;;;5.05;;
33902;SDS011;20194;50.950;5.346;2023-08-30T06:49:24;6.82;;;4.55;;
33902;SDS011;20194;50.950;5.346;2023-08-30T06:51:50;10.30;;;4.45;;
33902;SDS011;20194;50.950;5.346;2023-08-30T06:54:15;9.65;;;4.57;;
33902;SDS011;20194;50.950;5.346;2023-08-30T06:56:45;6.53;;;3.75;;
33902;SDS011;20194;50.950;5.346;2023-08-30T06:59:21;9.65;;;3.72;;
33902;SDS011;20194;50.950;5.346;2023-08-30T07:01:47;7.60;;;3.70;;
33902;SDS011;20194;50.950;5.346;2023-08-30T07:04:13;11.93;;;4.43;;
33902;SDS011;20194;50.950;5.346;2023-08-30T07:06:38;5.72;;;3.25;;
33902;SDS011;20194;50.950;5.346;2023-08-30T07:09:04;9.25;;;3.75;;
33902;SDS011;20194;50.950;5.346;2023-08-30T07:11:31;9.13;;;3.45;;
33902;SDS011;20194;50.950;5.346;2023-08-30T07:13:57;5.40;;;3.25;;
33902;SDS011;20194;50.950;5.346;2023-08-30T07:16:22;8.18;;;3.60;;
33902;SDS011;20194;50.950;5.346;2023-08-30T07:18:48;11.60;;;3.97;;
33902;SDS011;20194;50.950;5.346;2023-08-30T07:21:15;10.63;;;3.85;;
33902;SDS011;20194;50.950;5.346;2023-08-30T07:23:40;8.23;;;3.35;;
33902;SDS011;20194;50.950;5.346;2023-08-30T07:26:06;9.00;;;3.63;;
33902;SDS011;20194;50.950;5.346;2023-08-30T07:28:32;6.93;;;3.88;;
33902;SDS011;20194;50.950;5.346;2023-08-30T07:31:04;5.68;;;2.78;;
33902;SDS011;20194;50.950;5.346;2023-08-30T07:33:30;9.20;;;3.53;;
33902;SDS011;20194;50.950;5.346;2023-08-30T07:35:56;8.55;;;3.53;;
33902;SDS011;20194;50.950;5.346;2023-08-30T07:38:22;8.73;;;3.38;;
33902;SDS011;20194;50.950;5.346;2023-08-30T07:40:47;10.57;;;4.10;;
33902;SDS011;20194;50.950;5.346;2023-08-30T07:43:13;7.20;;;4.30;;
33902;SDS011;20194;50.950;5.346;2023-08-30T07:45:39;7.35;;;2.90;;
33902;SDS011;20194;50.950;5.346;2023-08-30T07:48:04;5.32;;;3.65;;
33902;SDS011;20194;50.950;5.346;2023-08-30T07:50:30;8.60;;;3.90;;
33902;SDS011;20194;50.950;5.346;2023-08-30T07:52:56;5.75;;;3.30;;
33902;SDS011;20194;50.950;5.346;2023-08-30T07:55:22;6.93;;;3.45;;
33902;SDS011;20194;50.950;5.346;2023-08-30T07:57:47;4.45;;;2.85;;
33902;SDS011;20194;50.950;5.346;2023-08-30T08:00:13;5.57;;;3.22;;
33902;SDS011;20194;50.950;5.346;2023-08-30T08:02:40;9.57;;;3.72;;
33902;SDS011;20194;50.950;5.346;2023-08-30T08:05:06;6.70;;;3.92;;
33902;SDS011;20194;50.950;5.346;2023-08-30T08:07:32;7.35;;;4.07;;
33902;SDS011;20194;50.950;5.346;2023-08-30T08:09:58;9.32;;;4.50;;
33902;SDS011;20194;50.950;5.346;2023-08-30T08:12:25;8.43;;;4.10;;
33902;SDS011;20194;50.950;5.346;2023-08-30T08:14:51;11.80;;;4.22;;
33902;SDS011;20194;50.950;5.346;2023-08-30T08:17:17;10.52;;;4.30;;
33902;SDS011;20194;50.950;5.346;2023-08-30T08:19:42;8.73;;;4.45;;
33902;SDS011;20194;50.950;5.346;2023-08-30T08:22:08;8.93;;;4.28;;
33902;SDS011;20194;50.950;5.346;2023-08-30T08:24:34;6.75;;;3.88;;
33902;SDS011;20194;50.950;5.346;2023-08-30T08:27:00;9.07;;;4.70;;
33902;SDS011;20194;50.950;5.346;2023-08-30T08:29:26;8.70;;;4.65;;
33902;SDS011;20194;50.950;5.346;2023-08-30T08:31:53;6.93;;;4.70;;
33902;SDS011;20194;50.950;5.346;2023-08-30T08:34:19;16.77;;;5.20;;
33902;SDS011;20194;50.950;5.346;2023-08-30T08:36:45;7.72;;;5.32;;
33902;SDS011;20194;50.950;5.346;2023-08-30T08:39:10;10.23;;;4.90;;
33902;SDS011;20194;50.950;5.346;2023-08-30T08:41:41;8.43;;;5.38;;
33902;SDS011;20194;50.950;5.346;2023-08-30T08:44:08;11.13;;;6.00;;
33902;SDS011;20194;50.950;5.346;2023-08-30T08:46:35;12.25;;;6.53;;
33902;SDS011;20194;50.950;5.346;2023-08-30T08:49:05;10.80;;;6.13;;
33902;SDS011;20194;50.950;5.346;2023-08-30T08:51:40;13.85;;;6.70;;
33902;SDS011;20194;50.950;5.346;2023-08-30T08:54:07;15.55;;;7.55;;
33902;SDS011;20194;50.950;5.346;2023-08-30T08:56:34;14.95;;;7.78;;
33902;SDS011;20194;50.950;5.346;2023-08-30T08:59:00;10.18;;;5.80;;
33902;SDS011;20194;50.950;5.346;2023-08-30T09:01:26;17.95;;;6.35;;
33902;SDS011;20194;50.950;5.346;2023-08-30T09:03:53;12.27;;;6.68;;
33902;SDS011;20194;50.950;5.346;2023-08-30T09:06:19;16.75;;;6.63;;
33902;SDS011;20194;50.950;5.346;2023-08-30T09:08:45;11.35;;;6.47;;
33902;SDS011;20194;50.950;5.346;2023-08-30T09:11:11;9.73;;;6.28;;
33902;SDS011;20194;50.950;5.346;2023-08-30T09:13:37;13.20;;;6.25;;
33902;SDS011;20194;50.950;5.346;2023-08-30T09:16:02;9.95;;;6.47;;
33902;SDS011;20194;50.950;5.346;2023-08-30T09:18:37;10.50;;;6.28;;
33902;SDS011;20194;50.950;5.346;2023-08-30T09:21:10;12.23;;;6.40;;
33902;SDS011;20194;50.950;5.346;2023-08-30T09:23:36;11.45;;;6.63;;
33902;SDS011;20194;50.950;5.346;2023-08-30T09:26:03;13.98;;;5.85;;
33902;SDS011;20194;50.950;5.346;2023-08-30T09:28:29;7.97;;;5.20;;
33902;SDS011;20194;50.950;5.346;2023-08-30T09:30:57;12.73;;;5.53;;
33902;SDS011;20194;50.950;5.346;2023-08-30T09:33:31;9.38;;;5.70;;
33902;SDS011;20194;50.950;5.346;2023-08-30T09:35:58;11.23;;;5.50;;
33902;SDS011;20194;50.950;5.346;2023-08-30T09:38:24;7.82;;;4.97;;
33902;SDS011;20194;50.950;5.346;2023-08-30T09:40:51;10.00;;;6.15;;
33902;SDS011;20194;50.950;5.346;2023-08-30T09:43:20;11.35;;;5.88;;
33902;SDS011;20194;50.950;5.346;2023-08-30T09:45:50;11.75;;;6.28;;
33902;SDS011;20194;50.950;5.346;2023-08-30T09:48:17;9.30;;;5.57;;
33902;SDS011;20194;50.950;5.346;2023-08-30T09:50:47;10.43;;;6.15;;
33902;SDS011;20194;50.950;5.346;2023-08-30T09:53:19;8.65;;;5.93;;
33902;SDS011;20194;50.950;5.346;2023-08-30T09:55:50;6.57;;;5.05;;
33902;SDS011;20194;50.950;5.346;2023-08-30T09:58:17;7.78;;;5.50;;
33902;SDS011;20194;50.950;5.346;2023-08-30T10:00:45;9.63;;;4.93;;
33902;SDS011;20194;50.950;5.346;2023-08-30T10:03:12;10.13;;;4.95;;
33902;SDS011;20194;50.950;5.346;2023-08-30T10:05:38;6.70;;;4.53;;
33902;SDS011;20194;50.950;5.346;2023-08-30T10:08:06;8.05;;;4.25;;
33902;SDS011;20194;50.950;5.346;2023-08-30T10:10:34;4.90;;;3.83;;
33902;SDS011;20194;50.950;5.346;2023-08-30T10:13:01;5.40;;;4.20;;
33902;SDS011;20194;50.950;5.346;2023-08-30T10:15:27;5.15;;;4.22;;
33902;SDS011;20194;50.950;5.346;2023-08-30T10:17:58;6.03;;;3.90;;
33902;SDS011;20194;50.950;5.346;2023-08-30T10:20:25;6.60;;;4.63;;
33902;SDS011;20194;50.950;5.346;2023-08-30T10:22:53;7.53;;;4.22;;
33902;SDS011;20194;50.950;5.346;2023-08-30T10:25:21;8.90;;;4.30;;
33902;SDS011;20194;50.950;5.346;2023-08-30T10:27:49;5.90;;;4.93;;
33902;SDS011;20194;50.950;5.346;2023-08-30T10:30:17;5.95;;;4.25;;
33902;SDS011;20194;50.950;5.346;2023-08-30T10:32:45;7.65;;;4.15;;
33902;SDS011;20194;50.950;5.346;2023-08-30T10:35:15;8.02;;;3.90;;
33902;SDS011;20194;50.950;5.346;2023-08-30T10:37:53;4.85;;;3.58;;
33902;SDS011;20194;50.950;5.346;2023-08-30T10:40:24;4.60;;;3.63;;
33902;SDS011;20194;50.950;5.346;2023-08-30T10:43:00;5.32;;;3.05;;
33902;SDS011;20194;50.950;5.346;2023-08-30T10:45:27;5.78;;;3.42;;
33902;SDS011;20194;50.950;5.346;2023-08-30T10:47:56;4.72;;;2.95;;
33902;SDS011;20194;50.950;5.346;2023-08-30T10:50:27;3.70;;;2.80;;
33902;SDS011;20194;50.950;5.346;2023-08-30T10:52:57;5.28;;;3.05;;
33902;SDS011;20194;50.950;5.346;2023-08-30T10:55:23;5.35;;;3.17;;
33902;SDS011;20194;50.950;5.346;2023-08-30T10:57:57;6.53;;;3.00;;
33902;SDS011;20194;50.950;5.346;2023-08-30T11:00:24;4.20;;;3.25;;
33902;SDS011;20194;50.950;5.346;2023-08-30T11:02:52;2.72;;;2.45;;
33902;SDS011;20194;50.950;5.346;2023-08-30T11:05:20;4.32;;;2.72;;
33902;SDS011;20194;50.950;5.346;2023-08-30T11:07:50;3.85;;;2.60;;
33902;SDS011;20194;50.950;5.346;2023-08-30T11:10:17;4.32;;;2.88;;
33902;SDS011;20194;50.950;5.346;2023-08-30T11:12:44;5.00;;;2.42;;
33902;SDS011;20194;50.950;5.346;2023-08-30T11:15:11;3.47;;;2.35;;
33902;SDS011;20194;50.950;5.346;2023-08-30T11:17:43;3.60;;;2.08;;
33902;SDS011;20194;50.950;5.346;2023-08-30T11:22:42;5.10;;;2.50;;
33902;SDS011;20194;50.950;5.346;2023-08-30T11:25:09;4.90;;;2.33;;
33902;SDS011;20194;50.950;5.346;2023-08-30T11:27:35;6.22;;;2.45;;
33902;SDS011;20194;50.950;5.346;2023-08-30T11:30:05;7.78;;;2.78;;
33902;SDS011;20194;50.950;5.346;2023-08-30T11:32:33;3.38;;;2.58;;
33902;SDS011;20194;50.950;5.346;2023-08-30T11:35:00;3.28;;;2.40;;
33902;SDS011;20194;50.950;5.346;2023-08-30T11:37:29;4.05;;;2.60;;
33902;SDS011;20194;50.950;5.346;2023-08-30T11:39:56;7.15;;;2.70;;
33902;SDS011;20194;50.950;5.346;2023-08-30T11:42:22;6.68;;;2.55;;
33902;SDS011;20194;50.950;5.346;2023-08-30T11:44:52;6.47;;;2.85;;
33902;SDS011;20194;50.950;5.346;2023-08-30T11:47:19;5.35;;;2.45;;
33902;SDS011;20194;50.950;5.346;2023-08-30T11:49:46;4.53;;;2.78;;
33902;SDS011;20194;50.950;5.346;2023-08-30T11:52:14;4.10;;;3.08;;
33902;SDS011;20194;50.950;5.346;2023-08-30T11:54:40;3.42;;;3.08;;
33902;SDS011;20194;50.950;5.346;2023-08-30T11:57:06;5.30;;;3.25;;
33902;SDS011;20194;50.950;5.346;2023-08-30T11:59:34;6.05;;;3.38;;
33902;SDS011;20194;50.950;5.346;2023-08-30T12:02:01;5.38;;;3.55;;
33902;SDS011;20194;50.950;5.346;2023-08-30T12:04:28;5.50;;;3.28;;
33902;SDS011;20194;50.950;5.346;2023-08-30T12:06:54;6.70;;;3.60;;
33902;SDS011;20194;50.950;5.346;2023-08-30T12:09:20;5.22;;;3.83;;
33902;SDS011;20194;50.950;5.346;2023-08-30T12:11:49;6.32;;;3.60;;
33902;SDS011;20194;50.950;5.346;2023-08-30T12:14:15;6.60;;;3.92;;
33902;SDS011;20194;50.950;5.346;2023-08-30T12:16:41;6.10;;;3.80;;
33902;SDS011;20194;50.950;5.346;2023-08-30T12:19:08;4.60;;;3.63;;
33902;SDS011;20194;50.950;5.346;2023-08-30T12:21:46;5.05;;;3.30;;
33902;SDS011;20194;50.950;5.346;2023-08-30T12:24:12;5.53;;;4.15;;
33902;SDS011;20194;50.950;5.346;2023-08-30T12:26:38;4.00;;;3.08;;
33902;SDS011;20194;50.950;5.346;2023-08-30T12:29:04;5.88;;;3.80;;
33902;SDS011;20194;50.950;5.346;2023-08-30T12:31:34;5.72;;;4.00;;
33902;SDS011;20194;50.950;5.346;2023-08-30T12:33:59;5.03;;;4.07;;
33902;SDS011;20194;50.950;5.346;2023-08-30T12:36:25;7.35;;;3.95;;
33902;SDS011;20194;50.950;5.346;2023-08-30T12:38:51;5.68;;;3.83;;
33902;SDS011;20194;50.950;5.346;2023-08-30T12:41:17;6.43;;;4.03;;
33902;SDS011;20194;50.950;5.346;2023-08-30T12:43:45;4.28;;;3.75;;
33902;SDS011;20194;50.950;5.346;2023-08-30T12:46:11;6.53;;;3.92;;
33902;SDS011;20194;50.950;5.346;2023-08-30T12:48:37;5.15;;;4.28;;
33902;SDS011;20194;50.950;5.346;2023-08-30T12:51:03;6.03;;;4.10;;
33902;SDS011;20194;50.950;5.346;2023-08-30T12:53:28;4.88;;;3.95;;
33902;SDS011;20194;50.950;5.346;2023-08-30T12:55:54;5.25;;;4.13;;
33902;SDS011;20194;50.950;5.346;2023-08-30T12:58:20;6.55;;;3.75;;
33902;SDS011;20194;50.950;5.346;2023-08-30T13:00:45;6.30;;;3.88;;
33902;SDS011;20194;50.950;5.346;2023-08-30T13:03:11;5.90;;;3.78;;
33902;SDS011;20194;50.950;5.346;2023-08-30T13:05:37;9.02;;;4.80;;
33902;SDS011;20194;50.950;5.346;2023-08-30T13:08:02;7.60;;;4.32;;
33902;SDS011;20194;50.950;5.346;2023-08-30T13:10:28;7.28;;;4.40;;
33902;SDS011;20194;50.950;5.346;2023-08-30T13:12:54;8.98;;;4.50;;
33902;SDS011;20194;50.950;5.346;2023-08-30T13:15:20;7.13;;;5.20;;
33902;SDS011;20194;50.950;5.346;2023-08-30T13:17:46;8.30;;;5.28;;
33902;SDS011;20194;50.950;5.346;2023-08-30T13:20:11;8.80;;;5.07;;
33902;SDS011;20194;50.950;5.346;2023-08-30T13:22:38;6.82;;;4.63;;
33902;SDS011;20194;50.950;5.346;2023-08-30T13:25:04;8.73;;;4.70;;
33902;SDS011;20194;50.950;5.346;2023-08-30T13:27:30;10.52;;;5.63;;
33902;SDS011;20194;50.950;5.346;2023-08-30T13:29:56;9.38;;;4.38;;
33902;SDS011;20194;50.950;5.346;2023-08-30T13:32:21;6.05;;;4.38;;
33902;SDS011;20194;50.950;5.346;2023-08-30T13:34:47;8.70;;;5.03;;
33902;SDS011;20194;50.950;5.346;2023-08-30T13:37:13;7.07;;;4.63;;
33902;SDS011;20194;50.950;5.346;2023-08-30T13:39:39;6.85;;;4.40;;
33902;SDS011;20194;50.950;5.346;2023-08-30T13:42:05;8.32;;;4.63;;
33902;SDS011;20194;50.950;5.346;2023-08-30T13:44:31;10.52;;;4.10;;
33902;SDS011;20194;50.950;5.346;2023-08-30T13:46:57;8.90;;;4.00;;
33902;SDS011;20194;50.950;5.346;2023-08-30T13:49:23;7.25;;;3.58;;
33902;SDS011;20194;50.950;5.346;2023-08-30T13:51:48;9.65;;;2.90;;
33902;SDS011;20194;50.950;5.346;2023-08-30T13:54:14;7.63;;;3.00;;
33902;SDS011;20194;50.950;5.346;2023-08-30T13:56:40;6.55;;;3.33;;
33902;SDS011;20194;50.950;5.346;2023-08-30T13:59:06;6.70;;;3.08;;
33902;SDS011;20194;50.950;5.346;2023-08-30T14:01:33;10.63;;;2.88;;
33902;SDS011;20194;50.950;5.346;2023-08-30T14:04:02;5.20;;;2.65;;
33902;SDS011;20194;50.950;5.346;2023-08-30T14:06:30;5.65;;;1.85;;
33902;SDS011;20194;50.950;5.346;2023-08-30T14:08:57;6.97;;;2.50;;
33902;SDS011;20194;50.950;5.346;2023-08-30T14:11:22;12.02;;;2.28;;
33902;SDS011;20194;50.950;5.346;2023-08-30T14:13:48;6.68;;;2.00;;
33902;SDS011;20194;50.950;5.346;2023-08-30T14:16:14;9.30;;;2.08;;
33902;SDS011;20194;50.950;5.346;2023-08-30T14:18:40;8.52;;;2.33;;
33902;SDS011;20194;50.950;5.346;2023-08-30T14:21:05;8.52;;;2.75;;
33902;SDS011;20194;50.950;5.346;2023-08-30T14:23:32;5.28;;;2.03;;
33902;SDS011;20194;50.950;5.346;2023-08-30T14:25:58;9.90;;;2.25;;
33902;SDS011;20194;50.950;5.346;2023-08-30T14:28:25;11.95;;;2.40;;
33902;SDS011;20194;50.950;5.346;2023-08-30T14:30:51;12.40;;;2.30;;
33902;SDS011;20194;50.950;5.346;2023-08-30T14:33:17;12.02;;;2.22;;
33902;SDS011;20194;50.950;5.346;2023-08-30T14:35:43;5.68;;;1.77;;
33902;SDS011;20194;50.950;5.346;2023-08-30T14:38:09;4.50;;;1.95;;
33902;SDS011;20194;50.950;5.346;2023-08-30T14:40:36;8.95;;;1.85;;